sensor_id;sensor_type;location;lat;lon;timestamp;pressure;altitude;pressure_sealevel;temperature;humidity
6028;BME280;3042;43.194;27.646;2023-04-07T00:00:46;101459.78;;;13.59;100.00
6028;BME280;3042;43.194;27.646;2023-04-07T00:03:20;101053.09;;;11.33;100.00
6028;BME280;3042;43.194;27.646;2023-04-07T00:06:21;100999.91;;;11.03;100.00
6028;BME280;3042;43.194;27.646;2023-04-07T00:08:57;101474.69;;;13.44;100.00
6028;BME280;3042;43.194;27.646;2023-04-07T00:11:48;101466.63;;;13.38;100.00
6028;BME280;3042;43.194;27.646;2023-04-07T00:14:44;101467.19;;;13.30;100.00
6028;BME280;3042;43.194;27.646;2023-04-07T00:17:18;101468.06;;;13.31;100.00
6028;BME280;3042;43.194;27.646;2023-04-07T00:19:45;101474.13;;;13.32;100.00
6028;BME280;3042;43.194;27.646;2023-04-07T00:22:16;101464.16;;;13.41;100.00
6028;BME280;3042;43.194;27.646;2023-04-07T00:24:43;101391.50;;;13.02;100.00
6028;BME280;3042;43.194;27.646;2023-04-07T00:27:11;101466.09;;;13.45;100.00
6028;BME280;3042;43.194;27.646;2023-04-07T00:29:39;101461.38;;;13.56;100.00
6028;BME280;3042;43.194;27.646;2023-04-07T00:32:08;101465.41;;;13.49;100.00
6028;BME280;3042;43.194;27.646;2023-04-07T00:34:37;101463.81;;;13.52;100.00
6028;BME280;3042;43.194;27.646;2023-04-07T00:37:10;101423.84;;;13.29;100.00
6028;BME280;3042;43.194;27.646;2023-04-07T00:39:39;101460.34;;;13.52;100.00
6028;BME280;3042;43.194;27.646;2023-04-07T00:42:06;101460.47;;;13.36;100.00
6028;BME280;3042;43.194;27.646;2023-04-07T00:44:33;101445.75;;;13.35;100.00
6028;BME280;3042;43.194;27.646;2023-04-07T00:47:03;101469.22;;;13.38;100.00
6028;BME280;3042;43.194;27.646;2023-04-07T00:49:30;101467.84;;;13.46;100.00
6028;BME280;3042;43.194;27.646;2023-04-07T00:51:58;101447.06;;;13.26;100.00
6028;BME280;3042;43.194;27.646;2023-04-07T00:54:29;100909.66;;;10.32;100.00
6028;BME280;3042;43.194;27.646;2023-04-07T00:56:58;101473.66;;;13.40;100.00
6028;BME280;3042;43.194;27.646;2023-04-07T00:59:26;101321.69;;;12.50;100.00
6028;BME280;3042;43.194;27.646;2023-04-07T01:02:02;101222.41;;;11.76;100.00
6028;BME280;3042;43.194;27.646;2023-04-07T01:04:34;101488.69;;;13.10;100.00
6028;BME280;3042;43.194;27.646;2023-04-07T01:17:06;101448.69;;;12.50;100.00
6028;BME280;3042;43.194;27.646;2023-04-07T01:19:36;101490.53;;;12.75;100.00
6028;BME280;3042;43.194;27.646;2023-04-07T01:22:10;101487.41;;;12.82;100.00
6028;BME280;3042;43.194;27.646;2023-04-07T01:25:05;101490.84;;;12.81;100.00
6028;BME280;3042;43.194;27.646;2023-04-07T01:27:46;101386.44;;;12.30;100.00
6028;BME280;3042;43.194;27.646;2023-04-07T01:30:17;101478.56;;;12.97;100.00
6028;BME280;3042;43.194;27.646;2023-04-07T01:32:49;101486.06;;;12.91;100.00
6028;BME280;3042;43.194;27.646;2023-04-07T01:35:18;101481.47;;;12.85;100.00
6028;BME280;3042;43.194;27.646;2023-04-07T01:37:49;101476.25;;;13.03;100.00
6028;BME280;3042;43.194;27.646;2023-04-07T01:47:14;101474.22;;;12.96;100.00
6028;BME280;3042;43.194;27.646;2023-04-07T01:53:17;101417.75;;;12.90;100.00
6028;BME280;3042;43.194;27.646;2023-04-07T01:55:56;101394.59;;;12.75;100.00
6028;BME280;3042;43.194;27.646;2023-04-07T01:58:37;101389.94;;;12.87;100.00
6028;BME280;3042;43.194;27.646;2023-04-07T02:01:11;101489.19;;;13.21;100.00
6028;BME280;3042;43.194;27.646;2023-04-07T02:03:50;101448.59;;;13.41;100.00
6028;BME280;3042;43.194;27.646;2023-04-07T02:06:39;101450.22;;;13.39;100.00
6028;BME280;3042;43.194;27.646;2023-04-07T02:09:10;101451.19;;;13.41;100.00
6028;BME280;3042;43.194;27.646;2023-04-07T02:11:41;101455.16;;;13.33;100.00
6028;BME280;3042;43.194;27.646;2023-04-07T02:14:10;101449.81;;;13.29;100.00
6028;BME280;3042;43.194;27.646;2023-04-07T02:16:40;101384.50;;;13.01;100.00
6028;BME280;3042;43.194;27.646;2023-04-07T02:19:11;101444.78;;;13.33;100.00
6028;BME280;3042;43.194;27.646;2023-04-07T02:21:45;101468.00;;;13.49;100.00
6028;BME280;3042;43.194;27.646;2023-04-07T02:24:28;101076.75;;;11.05;100.00
6028;BME280;3042;43.194;27.646;2023-04-07T02:26:55;101479.03;;;13.25;100.00
6028;BME280;3042;43.194;27.646;2023-04-07T02:29:30;101133.84;;;11.28;100.00
6028;BME280;3042;43.194;27.646;2023-04-07T02:32:10;101545.91;;;13.13;100.00
6028;BME280;3042;43.194;27.646;2023-04-07T02:34:54;101492.72;;;13.03;100.00
6028;BME280;3042;43.194;27.646;2023-04-07T02:37:38;101357.13;;;12.13;100.00
6028;BME280;3042;43.194;27.646;2023-04-07T02:40:21;101459.41;;;12.75;100.00
6028;BME280;3042;43.194;27.646;2023-04-07T02:43:13;101293.50;;;12.00;100.00
6028;BME280;3042;43.194;27.646;2023-04-07T02:45:53;101497.88;;;13.21;100.00
6028;BME280;3042;43.194;27.646;2023-04-07T02:48:33;101497.44;;;13.12;100.00
6028;BME280;3042;43.194;27.646;2023-04-07T02:51:20;101506.84;;;13.10;100.00
6028;BME280;3042;43.194;27.646;2023-04-07T02:54:00;101448.47;;;12.81;100.00
6028;BME280;3042;43.194;27.646;2023-04-07T02:56:43;101523.25;;;13.09;100.00
6028;BME280;3042;43.194;27.646;2023-04-07T02:59:22;101511.25;;;13.11;100.00
6028;BME280;3042;43.194;27.646;2023-04-07T03:02:09;101507.09;;;12.97;100.00
6028;BME280;3042;43.194;27.646;2023-04-07T03:04:50;101516.16;;;12.87;100.00
6028;BME280;3042;43.194;27.646;2023-04-07T03:07:34;101254.06;;;11.52;100.00
6028;BME280;3042;43.194;27.646;2023-04-07T03:10:15;101508.16;;;13.00;100.00
6028;BME280;3042;43.194;27.646;2023-04-07T03:12:53;101506.22;;;12.96;100.00
6028;BME280;3042;43.194;27.646;2023-04-07T03:15:30;101410.41;;;12.26;100.00
6028;BME280;3042;43.194;27.646;2023-04-07T03:18:12;101481.78;;;12.91;100.00
6028;BME280;3042;43.194;27.646;2023-04-07T03:20:53;101504.69;;;13.19;100.00
6028;BME280;3042;43.194;27.646;2023-04-07T03:23:46;101500.09;;;13.32;100.00
6028;BME280;3042;43.194;27.646;2023-04-07T03:26:26;101331.34;;;12.34;100.00
6028;BME280;3042;43.194;27.646;2023-04-07T03:29:08;101480.91;;;13.47;100.00
6028;BME280;3042;43.194;27.646;2023-04-07T03:31:42;101479.59;;;13.57;100.00
6028;BME280;3042;43.194;27.646;2023-04-07T03:34:09;101444.91;;;13.36;99.95
6028;BME280;3042;43.194;27.646;2023-04-07T03:36:38;101522.44;;;13.47;100.00
6028;BME280;3042;43.194;27.646;2023-04-07T03:39:07;101499.81;;;13.64;100.00
6028;BME280;3042;43.194;27.646;2023-04-07T03:41:34;101365.72;;;12.67;100.00
6028;BME280;3042;43.194;27.646;2023-04-07T03:44:04;101521.28;;;13.41;100.00
6028;BME280;3042;43.194;27.646;2023-04-07T03:46:31;101519.34;;;13.37;100.00
6028;BME280;3042;43.194;27.646;2023-04-07T03:48:58;101267.28;;;11.58;100.00
6028;BME280;3042;43.194;27.646;2023-04-07T03:51:25;101541.25;;;13.06;100.00
6028;BME280;3042;43.194;27.646;2023-04-07T03:53:59;101547.81;;;12.98;100.00
6028;BME280;3042;43.194;27.646;2023-04-07T03:56:28;101546.66;;;13.10;100.00
6028;BME280;3042;43.194;27.646;2023-04-07T03:58:55;101547.84;;;13.17;100.00
6028;BME280;3042;43.194;27.646;2023-04-07T04:01:23;101544.72;;;13.24;100.00
6028;BME280;3042;43.194;27.646;2023-04-07T04:03:50;101553.91;;;13.18;100.00
6028;BME280;3042;43.194;27.646;2023-04-07T04:06:17;101506.22;;;12.96;100.00
6028;BME280;3042;43.194;27.646;2023-04-07T04:08:44;101550.75;;;13.23;100.00
6028;BME280;3042;43.194;27.646;2023-04-07T04:11:11;101097.59;;;10.72;100.00
6028;BME280;3042;43.194;27.646;2023-04-07T04:13:40;101291.41;;;12.11;100.00
6028;BME280;3042;43.194;27.646;2023-04-07T04:16:07;101544.81;;;13.63;100.00
6028;BME280;3042;43.194;27.646;2023-04-07T04:18:34;101285.91;;;12.23;100.00
6028;BME280;3042;43.194;27.646;2023-04-07T04:21:02;101423.72;;;13.07;100.00
6028;BME280;3042;43.194;27.646;2023-04-07T04:23:29;101542.63;;;13.72;100.00
6028;BME280;3042;43.194;27.646;2023-04-07T04:25:56;101550.66;;;13.59;100.00
6028;BME280;3042;43.194;27.646;2023-04-07T04:28:24;101516.91;;;13.59;100.00
6028;BME280;3042;43.194;27.646;2023-04-07T04:30:53;101539.19;;;13.93;100.00
6028;BME280;3042;43.194;27.646;2023-04-07T04:33:20;101537.53;;;13.95;100.00
6028;BME280;3042;43.194;27.646;2023-04-07T04:35:47;101536.84;;;13.99;100.00
6028;BME280;3042;43.194;27.646;2023-04-07T04:38:15;101451.66;;;13.51;100.00
6028;BME280;3042;43.194;27.646;2023-04-07T04:40:42;101441.47;;;13.56;100.00
6028;BME280;3042;43.194;27.646;2023-04-07T04:43:09;101536.16;;;14.03;100.00
6028;BME280;3042;43.194;27.646;2023-04-07T04:45:36;101532.22;;;14.13;100.00
6028;BME280;3042;43.194;27.646;2023-04-07T04:48:05;101540.22;;;14.18;100.00
6028;BME280;3042;43.194;27.646;2023-04-07T04:50:32;101556.59;;;14.15;100.00
6028;BME280;3042;43.194;27.646;2023-04-07T04:53:00;101554.53;;;14.08;100.00
6028;BME280;3042;43.194;27.646;2023-04-07T04:55:28;101555.69;;;14.14;100.00
6028;BME280;3042;43.194;27.646;2023-04-07T04:57:55;101558.22;;;14.13;100.00
6028;BME280;3042;43.194;27.646;2023-04-07T05:00:22;101560.34;;;14.22;100.00
6028;BME280;3042;43.194;27.646;2023-04-07T05:02:51;101556.34;;;14.30;100.00
6028;BME280;3042;43.194;27.646;2023-04-07T05:05:19;101548.34;;;14.46;100.00
6028;BME280;3042;43.194;27.646;2023-04-07T05:07:47;101436.13;;;13.72;100.00
6028;BME280;3042;43.194;27.646;2023-04-07T05:10:14;101554.03;;;14.57;100.00
6028;BME280;3042;43.194;27.646;2023-04-07T05:12:41;101439.63;;;13.94;100.00
6028;BME280;3042;43.194;27.646;2023-04-07T05:15:09;101552.59;;;14.64;100.00
6028;BME280;3042;43.194;27.646;2023-04-07T05:17:36;101573.00;;;14.54;100.00
6028;BME280;3042;43.194;27.646;2023-04-07T05:20:04;101557.91;;;14.67;100.00
6028;BME280;3042;43.194;27.646;2023-04-07T05:22:34;101558.16;;;14.73;100.00
6028;BME280;3042;43.194;27.646;2023-04-07T05:25:01;101556.53;;;14.75;100.00
6028;BME280;3042;43.194;27.646;2023-04-07T05:27:28;101556.63;;;14.78;100.00
6028;BME280;3042;43.194;27.646;2023-04-07T05:29:55;101561.72;;;14.75;100.00
6028;BME280;3042;43.194;27.646;2023-04-07T05:32:23;101558.75;;;14.88;100.00
6028;BME280;3042;43.194;27.646;2023-04-07T05:34:51;101557.00;;;14.87;100.00
6028;BME280;3042;43.194;27.646;2023-04-07T05:37:18;101554.19;;;15.04;100.00
6028;BME280;3042;43.194;27.646;2023-04-07T05:39:46;101428.25;;;14.55;100.00
6028;BME280;3042;43.194;27.646;2023-04-07T05:42:13;101556.66;;;15.23;100.00
6028;BME280;3042;43.194;27.646;2023-04-07T05:44:41;101554.00;;;15.22;99.17
6028;BME280;3042;43.194;27.646;2023-04-07T05:47:08;101558.31;;;15.21;96.79
6028;BME280;3042;43.194;27.646;2023-04-07T05:49:36;101554.59;;;15.37;96.29
6028;BME280;3042;43.194;27.646;2023-04-07T05:52:05;101278.41;;;13.68;94.08
6028;BME280;3042;43.194;27.646;2023-04-07T05:54:32;101480.09;;;15.18;94.46
6028;BME280;3042;43.194;27.646;2023-04-07T05:57:01;101539.84;;;15.84;95.42
6028;BME280;3042;43.194;27.646;2023-04-07T05:59:28;101533.38;;;15.97;94.97
6028;BME280;3042;43.194;27.646;2023-04-07T06:01:55;101527.25;;;16.22;95.35
6028;BME280;3042;43.194;27.646;2023-04-07T06:04:22;101527.06;;;16.41;92.67
6028;BME280;3042;43.194;27.646;2023-04-07T06:06:49;101521.34;;;16.53;90.43
6028;BME280;3042;43.194;27.646;2023-04-07T06:09:17;101532.50;;;16.49;89.22
6028;BME280;3042;43.194;27.646;2023-04-07T06:11:44;101530.28;;;16.61;90.33
6028;BME280;3042;43.194;27.646;2023-04-07T06:14:13;101533.97;;;16.41;90.16
6028;BME280;3042;43.194;27.646;2023-04-07T06:16:40;101550.56;;;16.43;89.03
6028;BME280;3042;43.194;27.646;2023-04-07T06:19:07;101329.56;;;15.06;87.93
6028;BME280;3042;43.194;27.646;2023-04-07T06:21:34;101561.00;;;16.43;87.95
6028;BME280;3042;43.194;27.646;2023-04-07T06:24:01;101567.88;;;16.41;87.33
6028;BME280;3042;43.194;27.646;2023-04-07T06:26:29;101562.88;;;16.47;86.46
6028;BME280;3042;43.194;27.646;2023-04-07T06:28:57;101554.50;;;16.57;87.07
6028;BME280;3042;43.194;27.646;2023-04-07T06:31:25;101553.94;;;16.66;87.98
6028;BME280;3042;43.194;27.646;2023-04-07T06:33:52;101547.28;;;16.76;86.93
6028;BME280;3042;43.194;27.646;2023-04-07T06:36:20;101556.69;;;16.71;80.94
6028;BME280;3042;43.194;27.646;2023-04-07T06:38:48;101546.97;;;16.92;79.84
6028;BME280;3042;43.194;27.646;2023-04-07T06:41:15;101543.03;;;17.05;77.76
6028;BME280;3042;43.194;27.646;2023-04-07T06:43:42;101538.69;;;17.05;75.27
6028;BME280;3042;43.194;27.646;2023-04-07T06:46:09;101530.81;;;17.34;74.12
6028;BME280;3042;43.194;27.646;2023-04-07T06:48:38;101494.53;;;17.75;73.84
6028;BME280;3042;43.194;27.646;2023-04-07T06:51:05;101503.16;;;18.03;71.40
6028;BME280;3042;43.194;27.646;2023-04-07T06:53:32;101492.53;;;18.31;68.76
6028;BME280;3042;43.194;27.646;2023-04-07T06:56:03;101282.47;;;17.63;68.08
6028;BME280;3042;43.194;27.646;2023-04-07T06:58:31;101469.47;;;18.89;67.62
6028;BME280;3042;43.194;27.646;2023-04-07T07:00:59;101468.25;;;19.13;67.59
6028;BME280;3042;43.194;27.646;2023-04-07T07:03:26;101479.81;;;19.23;65.94
6028;BME280;3042;43.194;27.646;2023-04-07T07:05:55;101494.88;;;18.92;62.94
6028;BME280;3042;43.194;27.646;2023-04-07T07:08:24;101491.84;;;19.14;63.16
6028;BME280;3042;43.194;27.646;2023-04-07T07:10:52;101491.41;;;19.34;63.98
6028;BME280;3042;43.194;27.646;2023-04-07T07:13:21;101367.38;;;18.91;63.98
6028;BME280;3042;43.194;27.646;2023-04-07T07:15:49;101479.72;;;19.62;64.39
6028;BME280;3042;43.194;27.646;2023-04-07T07:18:16;101499.28;;;19.35;63.06
6028;BME280;3042;43.194;27.646;2023-04-07T07:20:43;101494.31;;;19.49;61.71
6028;BME280;3042;43.194;27.646;2023-04-07T07:23:12;101509.66;;;19.31;61.66
6028;BME280;3042;43.194;27.646;2023-04-07T07:25:55;101507.13;;;19.35;60.58
6028;BME280;3042;43.194;27.646;2023-04-07T07:28:25;101262.19;;;17.87;59.97
6028;BME280;3042;43.194;27.646;2023-04-07T07:30:53;101513.25;;;19.36;60.73
6028;BME280;3042;43.194;27.646;2023-04-07T07:33:20;101516.44;;;19.21;59.53
6028;BME280;3042;43.194;27.646;2023-04-07T07:35:48;101381.19;;;18.44;58.89
6028;BME280;3042;43.194;27.646;2023-04-07T07:38:17;101516.03;;;19.01;57.63
6028;BME280;3042;43.194;27.646;2023-04-07T07:40:44;101533.34;;;18.96;57.62
6028;BME280;3042;43.194;27.646;2023-04-07T07:43:12;101529.13;;;19.01;56.85
6028;BME280;3042;43.194;27.646;2023-04-07T07:45:39;101526.56;;;19.04;56.17
6028;BME280;3042;43.194;27.646;2023-04-07T07:48:06;101534.47;;;19.07;56.37
6028;BME280;3042;43.194;27.646;2023-04-07T07:50:33;101513.19;;;19.33;56.42
6028;BME280;3042;43.194;27.646;2023-04-07T07:53:00;101205.59;;;17.51;56.54
6028;BME280;3042;43.194;27.646;2023-04-07T07:55:29;101504.84;;;19.52;55.73
6028;BME280;3042;43.194;27.646;2023-04-07T07:57:56;101505.66;;;19.50;55.25
6028;BME280;3042;43.194;27.646;2023-04-07T08:00:23;101388.72;;;18.68;55.29
6028;BME280;3042;43.194;27.646;2023-04-07T08:02:51;101528.91;;;19.33;55.55
6028;BME280;3042;43.194;27.646;2023-04-07T08:05:18;101522.84;;;19.34;55.50
6028;BME280;3042;43.194;27.646;2023-04-07T08:07:45;101402.72;;;18.32;54.34
6028;BME280;3042;43.194;27.646;2023-04-07T08:10:13;101523.63;;;19.31;55.85
6028;BME280;3042;43.194;27.646;2023-04-07T08:12:42;101481.44;;;19.17;55.48
6028;BME280;3042;43.194;27.646;2023-04-07T08:15:09;101513.72;;;19.57;54.74
6028;BME280;3042;43.194;27.646;2023-04-07T08:17:37;101464.31;;;19.35;55.26
6028;BME280;3042;43.194;27.646;2023-04-07T08:20:05;101493.44;;;19.94;54.74
6028;BME280;3042;43.194;27.646;2023-04-07T08:22:32;101304.06;;;18.69;54.19
6028;BME280;3042;43.194;27.646;2023-04-07T08:24:59;101290.94;;;18.66;53.64
6028;BME280;3042;43.194;27.646;2023-04-07T08:27:26;101423.25;;;19.35;53.47
6028;BME280;3042;43.194;27.646;2023-04-07T08:29:59;101494.19;;;19.87;54.53
6028;BME280;3042;43.194;27.646;2023-04-07T08:32:33;101439.22;;;19.48;53.15
6028;BME280;3042;43.194;27.646;2023-04-07T08:35:01;101491.47;;;19.81;53.61
6028;BME280;3042;43.194;27.646;2023-04-07T08:37:28;101516.16;;;19.50;54.29
6028;BME280;3042;43.194;27.646;2023-04-07T08:39:55;101500.16;;;19.80;54.59
6028;BME280;3042;43.194;27.646;2023-04-07T08:42:26;101488.38;;;20.05;54.19
6028;BME280;3042;43.194;27.646;2023-04-07T08:44:56;101492.50;;;19.91;53.74
6028;BME280;3042;43.194;27.646;2023-04-07T08:47:27;101498.69;;;19.94;53.62
6028;BME280;3042;43.194;27.646;2023-04-07T08:49:56;101528.25;;;19.42;53.67
6028;BME280;3042;43.194;27.646;2023-04-07T08:52:32;101496.81;;;19.87;54.18
6028;BME280;3042;43.194;27.646;2023-04-07T08:55:00;101514.84;;;19.70;54.10
6028;BME280;3042;43.194;27.646;2023-04-07T08:57:29;101527.66;;;19.56;53.59
6028;BME280;3042;43.194;27.646;2023-04-07T08:59:59;101539.53;;;19.39;53.90
6028;BME280;3042;43.194;27.646;2023-04-07T09:02:32;101520.72;;;19.58;53.30
6028;BME280;3042;43.194;27.646;2023-04-07T09:05:03;101454.66;;;19.32;53.76
6028;BME280;3042;43.194;27.646;2023-04-07T09:07:30;101387.72;;;19.04;53.84
6028;BME280;3042;43.194;27.646;2023-04-07T09:09:58;101522.84;;;19.78;53.88
6028;BME280;3042;43.194;27.646;2023-04-07T09:12:26;101498.09;;;20.11;53.30
6028;BME280;3042;43.194;27.646;2023-04-07T09:14:54;101482.84;;;20.41;53.45
6028;BME280;3042;43.194;27.646;2023-04-07T09:17:21;101411.31;;;19.98;53.24
6028;BME280;3042;43.194;27.646;2023-04-07T09:19:52;101475.53;;;20.75;53.16
6028;BME280;3042;43.194;27.646;2023-04-07T09:22:34;101312.66;;;20.10;52.57
6028;BME280;3042;43.194;27.646;2023-04-07T09:25:17;101303.59;;;19.86;53.67
6028;BME280;3042;43.194;27.646;2023-04-07T09:27:57;101473.03;;;20.84;52.84
6028;BME280;3042;43.194;27.646;2023-04-07T09:30:25;101483.50;;;20.83;53.41
6028;BME280;3042;43.194;27.646;2023-04-07T09:32:53;101476.56;;;20.88;52.95
6028;BME280;3042;43.194;27.646;2023-04-07T09:35:22;101500.69;;;20.59;52.21
6028;BME280;3042;43.194;27.646;2023-04-07T09:38:03;101532.31;;;20.17;52.99
6028;BME280;3042;43.194;27.646;2023-04-07T09:40:30;101519.66;;;19.94;53.52
6028;BME280;3042;43.194;27.646;2023-04-07T09:42:58;101519.91;;;20.07;53.67
6028;BME280;3042;43.194;27.646;2023-04-07T09:45:25;101527.56;;;19.96;53.53
6028;BME280;3042;43.194;27.646;2023-04-07T09:47:53;101531.22;;;20.04;53.86
6028;BME280;3042;43.194;27.646;2023-04-07T09:50:35;101505.56;;;20.38;53.97
6028;BME280;3042;43.194;27.646;2023-04-07T09:53:02;101500.66;;;20.58;54.18
6028;BME280;3042;43.194;27.646;2023-04-07T09:55:30;101496.56;;;20.78;53.79
6028;BME280;3042;43.194;27.646;2023-04-07T09:57:58;101508.41;;;20.52;53.56
6028;BME280;3042;43.194;27.646;2023-04-07T10:00:26;101489.56;;;20.77;54.11
6028;BME280;3042;43.194;27.646;2023-04-07T10:02:54;101331.25;;;19.69;54.05
6028;BME280;3042;43.194;27.646;2023-04-07T10:05:22;101488.13;;;20.98;53.31
6028;BME280;3042;43.194;27.646;2023-04-07T10:07:52;101476.38;;;21.40;53.86
6028;BME280;3042;43.194;27.646;2023-04-07T10:10:20;101474.88;;;21.59;53.19
6028;BME280;3042;43.194;27.646;2023-04-07T10:12:49;101444.91;;;21.46;52.29
6028;BME280;3042;43.194;27.646;2023-04-07T10:15:19;101508.47;;;21.16;52.03
6028;BME280;3042;43.194;27.646;2023-04-07T10:17:46;101496.69;;;21.50;52.55
6028;BME280;3042;43.194;27.646;2023-04-07T10:20:14;101527.38;;;20.87;53.04
6028;BME280;3042;43.194;27.646;2023-04-07T10:22:43;101519.00;;;21.14;52.66
6028;BME280;3042;43.194;27.646;2023-04-07T10:25:15;101520.78;;;21.18;53.37
6028;BME280;3042;43.194;27.646;2023-04-07T10:27:47;101512.16;;;21.30;53.12
6028;BME280;3042;43.194;27.646;2023-04-07T10:30:22;101404.66;;;20.77;53.02
6028;BME280;3042;43.194;27.646;2023-04-07T10:32:51;101514.84;;;21.35;52.58
6028;BME280;3042;43.194;27.646;2023-04-07T10:35:19;101294.63;;;20.34;52.77
6028;BME280;3042;43.194;27.646;2023-04-07T10:38:10;101357.84;;;20.50;53.22
6028;BME280;3042;43.194;27.646;2023-04-07T10:40:41;101483.88;;;21.07;52.16
6028;BME280;3042;43.194;27.646;2023-04-07T10:43:09;101396.81;;;20.81;52.17
6028;BME280;3042;43.194;27.646;2023-04-07T10:45:53;101518.03;;;21.09;51.93
6028;BME280;3042;43.194;27.646;2023-04-07T10:48:24;101518.94;;;21.11;53.35
6028;BME280;3042;43.194;27.646;2023-04-07T10:51:20;101501.72;;;21.35;52.73
6028;BME280;3042;43.194;27.646;2023-04-07T10:54:22;101502.72;;;21.44;52.81
6028;BME280;3042;43.194;27.646;2023-04-07T10:57:15;101494.25;;;21.68;52.44
6028;BME280;3042;43.194;27.646;2023-04-07T11:00:15;101487.16;;;21.61;52.01
6028;BME280;3042;43.194;27.646;2023-04-07T11:02:43;101284.66;;;20.07;52.08
6028;BME280;3042;43.194;27.646;2023-04-07T11:05:19;101508.09;;;21.52;51.27
6028;BME280;3042;43.194;27.646;2023-04-07T11:07:52;101408.66;;;20.55;51.29
6028;BME280;3042;43.194;27.646;2023-04-07T11:10:22;101515.69;;;21.32;51.65
6028;BME280;3042;43.194;27.646;2023-04-07T11:13:07;101526.81;;;21.11;51.41
6028;BME280;3042;43.194;27.646;2023-04-07T11:15:35;101533.88;;;21.12;51.81
6028;BME280;3042;43.194;27.646;2023-04-07T11:18:12;101420.16;;;20.58;52.48
6028;BME280;3042;43.194;27.646;2023-04-07T11:20:47;101540.78;;;21.05;52.03
6028;BME280;3042;43.194;27.646;2023-04-07T11:23:15;101531.00;;;20.97;52.39
6028;BME280;3042;43.194;27.646;2023-04-07T11:25:46;101529.25;;;20.96;52.86
6028;BME280;3042;43.194;27.646;2023-04-07T11:28:15;101525.16;;;21.18;52.74
6028;BME280;3042;43.194;27.646;2023-04-07T11:30:52;101521.09;;;20.77;52.96
6028;BME280;3042;43.194;27.646;2023-04-07T11:33:22;101537.94;;;20.92;52.77
6028;BME280;3042;43.194;27.646;2023-04-07T11:35:52;101542.25;;;20.86;53.51
6028;BME280;3042;43.194;27.646;2023-04-07T11:38:20;101538.75;;;20.87;52.91
6028;BME280;3042;43.194;27.646;2023-04-07T11:40:48;101524.38;;;20.12;52.94
6028;BME280;3042;43.194;27.646;2023-04-07T11:43:18;101335.22;;;18.57;52.78
6028;BME280;3042;43.194;27.646;2023-04-07T11:45:46;101569.13;;;20.20;54.60
6028;BME280;3042;43.194;27.646;2023-04-07T11:48:28;101564.00;;;20.26;53.62
6028;BME280;3042;43.194;27.646;2023-04-07T11:50:56;101438.47;;;19.53;53.45
6028;BME280;3042;43.194;27.646;2023-04-07T11:53:28;101560.56;;;20.30;54.10
6028;BME280;3042;43.194;27.646;2023-04-07T11:56:02;101541.31;;;20.81;54.21
6028;BME280;3042;43.194;27.646;2023-04-07T11:58:31;101524.97;;;21.04;54.26
6028;BME280;3042;43.194;27.646;2023-04-07T12:01:00;101455.22;;;20.63;54.02
6028;BME280;3042;43.194;27.646;2023-04-07T12:03:31;101525.94;;;21.11;53.27
6028;BME280;3042;43.194;27.646;2023-04-07T12:05:58;101514.81;;;21.28;53.35
6028;BME280;3042;43.194;27.646;2023-04-07T12:08:42;101492.47;;;21.64;52.95
6028;BME280;3042;43.194;27.646;2023-04-07T12:11:09;101457.13;;;21.41;52.62
6028;BME280;3042;43.194;27.646;2023-04-07T12:13:38;101471.63;;;21.86;52.74
6028;BME280;3042;43.194;27.646;2023-04-07T12:16:06;101488.31;;;21.88;51.99
6028;BME280;3042;43.194;27.646;2023-04-07T12:18:33;101495.97;;;21.63;52.18
6028;BME280;3042;43.194;27.646;2023-04-07T12:21:01;101498.50;;;21.57;51.68
6028;BME280;3042;43.194;27.646;2023-04-07T12:23:28;101483.97;;;21.93;52.08
6028;BME280;3042;43.194;27.646;2023-04-07T12:25:55;101490.69;;;21.65;51.48
6028;BME280;3042;43.194;27.646;2023-04-07T12:28:22;101288.16;;;20.75;51.41
6028;BME280;3042;43.194;27.646;2023-04-07T12:30:51;101473.59;;;22.08;51.69
6028;BME280;3042;43.194;27.646;2023-04-07T12:33:18;101461.50;;;22.29;52.04
6028;BME280;3042;43.194;27.646;2023-04-07T12:35:45;101476.16;;;22.02;51.55
6028;BME280;3042;43.194;27.646;2023-04-07T12:38:12;101465.63;;;22.02;51.47
6028;BME280;3042;43.194;27.646;2023-04-07T12:40:40;101469.25;;;22.13;51.19
6028;BME280;3042;43.194;27.646;2023-04-07T12:43:07;101438.25;;;21.82;51.70
6028;BME280;3042;43.194;27.646;2023-04-07T12:45:34;101474.63;;;22.23;51.90
6028;BME280;3042;43.194;27.646;2023-04-07T12:48:03;101464.25;;;22.46;51.51
6028;BME280;3042;43.194;27.646;2023-04-07T12:50:30;101465.25;;;22.65;51.88
6028;BME280;3042;43.194;27.646;2023-04-07T12:52:57;101465.19;;;22.55;50.85
6028;BME280;3042;43.194;27.646;2023-04-07T12:55:28;101460.91;;;22.70;50.51
6028;BME280;3042;43.194;27.646;2023-04-07T12:57:58;101491.81;;;21.88;49.93
6028;BME280;3042;43.194;27.646;2023-04-07T13:00:25;101389.78;;;20.80;51.23
6028;BME280;3042;43.194;27.646;2023-04-07T13:02:52;101521.69;;;21.20;52.33
6028;BME280;3042;43.194;27.646;2023-04-07T13:05:20;101538.69;;;20.81;52.64
6028;BME280;3042;43.194;27.646;2023-04-07T13:07:48;101481.00;;;20.34;52.93
6028;BME280;3042;43.194;27.646;2023-04-07T13:10:15;101382.50;;;20.01;53.45
6028;BME280;3042;43.194;27.646;2023-04-07T13:12:42;101562.59;;;20.47;53.58
6028;BME280;3042;43.194;27.646;2023-04-07T13:15:09;101568.91;;;20.08;54.33
6028;BME280;3042;43.194;27.646;2023-04-07T13:17:36;101560.31;;;20.18;53.53
6028;BME280;3042;43.194;27.646;2023-04-07T13:20:05;101581.59;;;20.33;54.78
6028;BME280;3042;43.194;27.646;2023-04-07T13:22:34;101500.94;;;20.23;54.77
6028;BME280;3042;43.194;27.646;2023-04-07T13:25:01;101287.31;;;19.05;54.30
6028;BME280;3042;43.194;27.646;2023-04-07T13:27:28;101542.66;;;20.56;54.64
6028;BME280;3042;43.194;27.646;2023-04-07T13:32:22;101566.47;;;20.18;54.48
6028;BME280;3042;43.194;27.646;2023-04-07T13:34:49;101591.63;;;19.65;54.68
6028;BME280;3042;43.194;27.646;2023-04-07T13:37:17;101594.16;;;19.61;55.83